createdAt,value
2019-04-30T00:04:06.876Z,99.90
2019-04-30T00:09:17.092Z,99.90
2019-04-30T00:14:22.351Z,99.90
2019-04-30T00:19:27.662Z,99.90
2019-04-30T00:24:32.987Z,99.90
2019-04-30T00:29:38.369Z,99.90
2019-04-30T00:34:45.501Z,99.90
2019-04-30T00:39:52.809Z,99.90
2019-04-30T00:44:59.659Z,99.90
2019-04-30T00:50:06.672Z,99.90
2019-04-30T00:55:12.052Z,99.90
2019-04-30T01:00:25.205Z,99.90
2019-04-30T01:05:25.500Z,99.90
2019-04-30T01:10:32.094Z,99.90
2019-04-30T01:15:39.064Z,99.90
2019-04-30T01:20:44.640Z,99.90
2019-04-30T01:25:51.357Z,99.90
2019-04-30T01:31:01.745Z,99.90
2019-04-30T01:36:09.714Z,99.90
2019-04-30T01:41:12.276Z,99.90
2019-04-30T01:46:18.932Z,99.90
2019-04-30T01:51:24.557Z,99.90
2019-04-30T01:56:45.255Z,99.90
2019-04-30T02:01:51.106Z,99.90
2019-04-30T02:06:56.437Z,99.90
2019-04-30T02:12:01.781Z,99.90
2019-04-30T02:17:07.090Z,99.90
2019-04-30T02:22:12.408Z,99.90
2019-04-30T02:27:19.174Z,99.90
2019-04-30T02:32:24.642Z,99.90
2019-04-30T02:37:40.385Z,99.90
2019-04-30T02:42:44.867Z,99.90
2019-04-30T02:47:50.502Z,99.90
2019-04-30T02:52:56.655Z,99.90
2019-04-30T02:58:01.966Z,99.90
2019-04-30T03:03:10.077Z,99.90
2019-04-30T03:08:14.292Z,99.90
2019-04-30T03:13:20.181Z,99.90
2019-04-30T03:18:30.479Z,99.90
2019-04-30T03:23:36.119Z,99.90
2019-04-30T03:28:41.446Z,99.90
2019-04-30T03:33:46.749Z,99.90
2019-04-30T03:38:52.044Z,99.90
2019-04-30T03:44:16.066Z,99.90
2019-04-30T03:49:04.350Z,99.90
2019-04-30T03:54:10.311Z,99.90
2019-04-30T03:59:15.726Z,99.90
2019-04-30T04:04:33.867Z,99.90
2019-04-30T04:09:44.036Z,99.90
2019-04-30T04:14:50.997Z,99.90
2019-04-30T04:19:56.356Z,99.90
2019-04-30T04:25:03.269Z,99.90
2019-04-30T04:30:10.710Z,99.90
2019-04-30T04:35:15.774Z,99.90
2019-04-30T04:40:21.357Z,99.90
2019-04-30T04:45:26.712Z,99.90
2019-04-30T04:50:32.074Z,99.90
2019-04-30T04:55:39.843Z,99.90
2019-04-30T05:00:44.300Z,99.90
2019-04-30T05:05:50.096Z,99.90
2019-04-30T05:10:56.519Z,99.90
2019-04-30T05:16:02.087Z,99.90
2019-04-30T05:21:08.819Z,99.90
2019-04-30T05:26:14.258Z,99.90
2019-04-30T05:31:21.106Z,99.90
2019-04-30T05:36:26.595Z,99.90
2019-04-30T05:41:31.901Z,99.90
2019-04-30T05:46:37.211Z,99.90
2019-04-30T05:51:52.887Z,99.90
2019-04-30T05:56:49.458Z,99.90
2019-04-30T06:01:54.727Z,99.90
2019-04-30T06:07:00.393Z,99.90
2019-04-30T06:12:30.788Z,99.90
2019-04-30T06:17:36.206Z,99.90
2019-04-30T06:22:41.893Z,99.90
2019-04-30T06:27:48.833Z,99.90
2019-04-30T06:32:55.106Z,99.90
2019-04-30T06:38:00.561Z,99.90
2019-04-30T06:43:05.956Z,99.90
2019-04-30T06:48:12.722Z,99.90
2019-04-30T06:53:19.281Z,99.90
2019-04-30T06:58:24.807Z,99.90
2019-04-30T07:03:30.128Z,99.90
2019-04-30T07:08:59.521Z,99.90
2019-04-30T07:14:04.685Z,99.90
2019-04-30T07:19:09.992Z,99.90
2019-04-30T07:24:15.325Z,99.90
2019-04-30T07:29:20.616Z,99.90
2019-04-30T07:34:25.943Z,99.90
2019-04-30T07:39:33.366Z,99.90
2019-04-30T07:44:39.446Z,99.90
2019-04-30T07:49:51.788Z,99.90
2019-04-30T07:54:52.065Z,99.90
2019-04-30T07:59:59.689Z,99.90
2019-04-30T08:05:10.641Z,99.90
2019-04-30T08:10:16.167Z,99.90
2019-04-30T08:15:21.663Z,99.90
2019-04-30T08:20:29.445Z,99.90
2019-04-30T08:25:34.411Z,99.90
2019-04-30T08:30:39.834Z,99.90
2019-04-30T08:35:45.355Z,99.90
2019-04-30T08:40:56.094Z,99.90
2019-04-30T08:45:59.521Z,99.90
2019-04-30T08:51:06.757Z,99.90
2019-04-30T08:56:13.284Z,99.90
2019-04-30T09:01:19.838Z,99.90
2019-04-30T09:06:29.706Z,99.90
2019-04-30T09:11:50.106Z,99.90
2019-04-30T09:16:44.306Z,99.90
2019-04-30T09:21:52.530Z,99.90
2019-04-30T09:26:59.192Z,99.90
2019-04-30T09:32:05.713Z,99.90
2019-04-30T09:37:12.341Z,99.90
2019-04-30T09:42:19.561Z,99.90
2019-04-30T09:47:26.493Z,99.90
2019-04-30T09:52:33.895Z,99.90
2019-04-30T09:57:39.944Z,99.90
2019-04-30T10:02:45.266Z,99.90
2019-04-30T10:07:50.912Z,99.90
2019-04-30T10:12:59.466Z,99.90
2019-04-30T10:18:09.655Z,99.90
2019-04-30T10:23:30.364Z,99.90
2019-04-30T10:28:53.159Z,99.90
2019-04-30T10:34:01.347Z,99.90
2019-04-30T10:39:10.032Z,99.90
2019-04-30T10:44:15.392Z,99.90
2019-04-30T10:49:20.795Z,99.90
2019-04-30T10:54:26.555Z,99.90
2019-04-30T10:59:33.433Z,99.90
2019-04-30T11:04:44.773Z,99.90
2019-04-30T11:09:52.565Z,99.90
2019-04-30T11:15:00.138Z,99.90
2019-04-30T11:20:10.087Z,99.90
2019-04-30T11:25:16.777Z,99.90
2019-04-30T11:30:26.241Z,99.90
2019-04-30T11:35:33.929Z,99.90
2019-04-30T11:40:42.733Z,96.70
2019-04-30T11:46:28.801Z,95.40
2019-04-30T11:51:39.227Z,96.40
2019-04-30T11:56:50.441Z,98.80
2019-04-30T12:01:59.211Z,96.30
2019-04-30T12:07:21.300Z,97.00
2019-04-30T12:12:28.935Z,91.70
2019-04-30T12:17:36.232Z,88.20
2019-04-30T12:22:43.155Z,86.00
2019-04-30T12:27:51.155Z,87.30
2019-04-30T12:32:59.058Z,89.90
2019-04-30T12:38:05.677Z,92.50
2019-04-30T12:43:11.778Z,92.20
2019-04-30T12:48:22.839Z,94.80
2019-04-30T12:53:37.575Z,97.40
2019-04-30T12:58:42.999Z,97.80
2019-04-30T13:03:58.103Z,97.80
2019-04-30T13:08:55.771Z,95.90
2019-04-30T13:14:02.029Z,96.80
2019-04-30T13:19:09.321Z,96.40
2019-04-30T13:24:14.805Z,97.10
2019-04-30T13:29:26.786Z,98.00
2019-04-30T13:34:45.757Z,98.90
2019-04-30T13:40:25.191Z,99.90
2019-04-30T13:45:30.490Z,99.40
2019-04-30T13:50:35.852Z,99.70
2019-04-30T13:55:45.600Z,98.90
2019-04-30T14:00:49.439Z,99.20
2019-04-30T14:05:54.783Z,98.20
2019-04-30T14:11:00.020Z,99.90
2019-04-30T14:16:05.891Z,99.40
2019-04-30T14:21:11.200Z,99.20
2019-04-30T14:26:16.727Z,99.10
2019-04-30T14:31:22.046Z,99.90
2019-04-30T14:36:29.100Z,97.80
2019-04-30T14:41:35.343Z,98.70
2019-04-30T14:47:01.112Z,99.60
2019-04-30T14:52:06.803Z,98.60
2019-04-30T14:57:22.109Z,97.30
2019-04-30T15:02:53.339Z,97.00
2019-04-30T15:08:00.704Z,99.20
2019-04-30T15:13:06.408Z,99.40
2019-04-30T15:18:11.787Z,98.00
2019-04-30T15:23:24.287Z,98.80
2019-04-30T15:28:32.522Z,96.70
2019-04-30T15:34:02.048Z,98.60
2019-04-30T15:39:17.129Z,97.30
2019-04-30T15:44:22.447Z,97.10
2019-04-30T15:49:28.020Z,97.50
2019-04-30T15:54:33.804Z,98.40
2019-04-30T15:59:41.503Z,97.70
2019-04-30T16:05:04.759Z,96.00
2019-04-30T16:10:29.533Z,94.90
2019-04-30T16:15:35.209Z,95.30
2019-04-30T16:20:41.596Z,96.40
2019-04-30T16:25:47.452Z,97.30
2019-04-30T16:30:54.171Z,98.20
2019-04-30T16:36:00.312Z,99.10
2019-04-30T16:41:08.786Z,99.30
2019-04-30T16:46:13.536Z,99.30
2019-04-30T16:51:18.898Z,99.70
2019-04-30T16:56:24.155Z,99.90
2019-04-30T17:01:31.480Z,99.90
2019-04-30T17:06:39.296Z,99.50
2019-04-30T17:12:15.522Z,97.30
2019-04-30T17:17:20.819Z,97.30
2019-04-30T17:22:26.954Z,96.80
2019-04-30T17:27:32.692Z,96.50
2019-04-30T17:32:39.483Z,96.80
2019-04-30T17:37:45.528Z,96.70
2019-04-30T17:42:50.885Z,98.00
2019-04-30T17:47:56.210Z,98.60
2019-04-30T17:53:01.511Z,96.40
2019-04-30T17:58:06.878Z,94.10
2019-04-30T18:03:13.424Z,93.00
2019-04-30T18:08:18.803Z,93.00
2019-04-30T18:13:24.099Z,92.90
2019-04-30T18:18:35.107Z,93.50
2019-04-30T18:23:59.355Z,92.20
2019-04-30T18:29:04.696Z,91.50
2019-04-30T18:34:10.155Z,90.70
2019-04-30T18:39:15.530Z,91.00
2019-04-30T18:44:21.075Z,92.10
2019-04-30T18:49:26.423Z,92.70
2019-04-30T18:54:31.911Z,92.30
2019-04-30T18:59:37.283Z,91.80
2019-04-30T19:04:43.659Z,92.30
2019-04-30T19:09:55.596Z,93.90
2019-04-30T19:15:35.683Z,94.40
2019-04-30T19:20:51.348Z,94.20
2019-04-30T19:25:56.702Z,94.30
2019-04-30T19:31:02.031Z,94.00
2019-04-30T19:36:07.403Z,93.90
2019-04-30T19:41:12.808Z,93.40
2019-04-30T19:46:18.795Z,92.90
2019-04-30T19:51:24.247Z,91.90
2019-04-30T19:56:32.613Z,91.80
2019-04-30T20:01:36.499Z,91.70
2019-04-30T20:06:41.934Z,91.50
2019-04-30T20:11:49.296Z,91.20
2019-04-30T20:16:54.195Z,91.00
2019-04-30T20:21:59.677Z,91.20
2019-04-30T20:27:09.555Z,91.50
2019-04-30T20:32:13.056Z,91.60
2019-04-30T20:37:19.631Z,91.90
2019-04-30T20:42:25.005Z,92.10
2019-04-30T20:47:30.384Z,92.40
2019-04-30T20:52:36.085Z,92.90
2019-04-30T20:57:41.683Z,93.50
2019-04-30T21:02:48.615Z,94.60
2019-04-30T21:07:54.855Z,94.80
2019-04-30T21:13:00.168Z,95.70
2019-04-30T21:18:05.719Z,97.00
2019-04-30T21:23:11.035Z,97.40
2019-04-30T21:28:16.816Z,98.20
2019-04-30T21:33:28.164Z,98.40
2019-04-30T21:38:33.685Z,98.00
2019-04-30T21:43:39.510Z,97.30
2019-04-30T21:48:45.058Z,97.00
2019-04-30T21:53:50.568Z,97.20
2019-04-30T21:58:55.889Z,97.40
2019-04-30T22:04:01.400Z,97.90
2019-04-30T22:09:09.745Z,98.20
2019-04-30T22:14:16.800Z,98.10
2019-04-30T22:19:22.370Z,97.80
2019-04-30T22:24:30.992Z,97.40
2019-04-30T22:29:41.750Z,98.00
2019-04-30T22:34:43.295Z,98.30
2019-04-30T22:39:54.907Z,98.50
2019-04-30T22:45:01.681Z,98.50
2019-04-30T22:50:08.874Z,99.60
2019-04-30T22:55:14.264Z,99.90
2019-04-30T23:00:29.431Z,99.90
2019-04-30T23:05:34.762Z,99.90
2019-04-30T23:10:40.057Z,99.90
2019-04-30T23:15:45.347Z,99.90
2019-04-30T23:20:50.669Z,99.90
2019-04-30T23:25:55.988Z,99.90
2019-04-30T23:31:01.499Z,99.90
2019-04-30T23:36:07.959Z,99.90
2019-04-30T23:41:13.243Z,99.90
2019-04-30T23:46:18.615Z,99.90
2019-04-30T23:51:23.921Z,99.90
2019-04-30T23:56:29.244Z,99.90
